Ana Sayfa
METAR-TAF:

METAR-TAF

Havaalanları :

Midland, Teksas, Amerika Birleşik Devletleri

Enlem: 32-02-11N, Boylam: 102-06-03W, yükseklik: 854 m

Güncel hava durumu gözlemi

Rapor saat 06:55 UTC de 26 dakika önce yapıldı.
Rüzgar güneydoğudan 10 kt
Sıcaklık 15°C
Nem 39%
Basınç 1016 hPa
Görüş mesafesi: 16.1 km
Açık gökyüzü

METAR: KMDD 300655Z AUTO 14010KT 10SM CLR 15/01 A3000 RMK AO2 T01530010

Saat: 02:21 (07:21 UTC)


TAF: eksik

4.000'den fazla havaalanı için hava durumu gözlemleri ve tahminleri (METAR ve TAF raporları).

Kullanılabilir istasyonlar harita üzerinde sarı ve kırmızı noktalarla gösterilir.

İstasyonun adını görmek için fareyi noktanın üzerinde gezdirin.

Sonrasında hava gözlem ve tahminlerini görmek için tıklayın.

Haritayı değiştirmek için: yaklaştırmak için siyah artı işaretli yeşil düğmeye ve uzaklaştırmak için de eksi işaretli düğmeye hızla tıklayın; bitişik haritalar için yeşil okları kullanın.


METAR-TAF: